createdAt,value
2022-08-11T00:02:01.219Z,19.10
2022-08-11T00:04:37.303Z,19.03
2022-08-11T00:07:07.238Z,18.99
2022-08-11T00:09:39.599Z,19.02
2022-08-11T00:12:17.227Z,19.04
2022-08-11T00:14:46.849Z,18.99
2022-08-11T00:17:16.376Z,19.02
2022-08-11T00:20:14.652Z,18.97
2022-08-11T00:22:43.125Z,18.90
2022-08-11T00:25:22.179Z,18.85
2022-08-11T00:27:50.016Z,18.82
2022-08-11T00:30:17.693Z,18.82
2022-08-11T00:32:58.988Z,18.77
2022-08-11T00:35:51.760Z,18.78
2022-08-11T00:38:29.626Z,18.76
2022-08-11T00:41:11.726Z,18.73
2022-08-11T00:44:22.762Z,18.73
2022-08-11T00:47:35.329Z,18.69
2022-08-11T00:50:25.629Z,18.69
2022-08-11T00:53:17.284Z,18.77
2022-08-11T00:56:20.214Z,18.75
2022-08-11T00:59:35.284Z,18.67
2022-08-11T01:02:45.918Z,18.70
2022-08-11T01:06:03.450Z,18.64
2022-08-11T01:08:59.772Z,18.77
2022-08-11T01:12:31.508Z,18.78
2022-08-11T01:15:35.402Z,18.87
2022-08-11T01:19:16.272Z,18.81
2022-08-11T01:22:11.809Z,18.91
2022-08-11T01:24:48.556Z,18.95
2022-08-11T01:27:21.403Z,19.03
2022-08-11T01:30:13.066Z,19.10
2022-08-11T01:33:11.025Z,19.09
2022-08-11T01:36:06.686Z,19.17
2022-08-11T01:39:31.751Z,19.18
2022-08-11T01:42:54.271Z,19.16
2022-08-11T01:45:48.973Z,19.19
2022-08-11T01:50:05.848Z,19.18
2022-08-11T01:52:30.179Z,19.18
2022-08-11T01:55:45.647Z,19.18
2022-08-11T01:58:46.515Z,19.19
2022-08-11T02:01:53.049Z,19.02
2022-08-11T02:05:11.929Z,18.95
2022-08-11T02:08:11.832Z,18.93
2022-08-11T02:11:08.557Z,18.98
2022-08-11T02:13:57.015Z,18.98
2022-08-11T02:16:56.442Z,18.99
2022-08-11T02:20:16.388Z,18.93
2022-08-11T02:24:04.259Z,18.91
2022-08-11T02:26:23.627Z,18.82
2022-08-11T02:29:14.018Z,18.79
2022-08-11T02:32:30.321Z,18.71
2022-08-11T02:35:36.810Z,18.67
2022-08-11T02:38:28.585Z,18.55
2022-08-11T02:41:31.891Z,18.49
2022-08-11T02:44:28.385Z,18.42
2022-08-11T02:47:18.064Z,18.31
2022-08-11T02:50:06.526Z,18.20
2022-08-11T02:53:09.351Z,18.11
2022-08-11T02:56:31.942Z,18.00
2022-08-11T02:59:47.504Z,17.94
2022-08-11T03:02:33.264Z,17.84
2022-08-11T03:05:14.221Z,17.79
2022-08-11T03:08:07.707Z,17.82
2022-08-11T03:11:28.776Z,17.83
2022-08-11T03:14:29.583Z,17.78
2022-08-11T03:17:04.864Z,17.78
2022-08-11T03:20:03.550Z,17.78
2022-08-11T03:22:40.589Z,17.72
2022-08-11T03:25:31.750Z,17.65
2022-08-11T03:28:31.353Z,17.57
2022-08-11T03:31:13.811Z,17.55
2022-08-11T03:34:14.579Z,17.41
2022-08-11T03:37:41.862Z,17.44
2022-08-11T03:40:54.668Z,17.38
2022-08-11T03:43:50.303Z,17.42
2022-08-11T03:47:04.263Z,17.37
2022-08-11T03:49:52.691Z,17.35
2022-08-11T03:53:14.451Z,17.35
2022-08-11T03:56:19.287Z,17.40
2022-08-11T03:59:28.796Z,17.44
2022-08-11T04:02:18.336Z,17.34
2022-08-11T04:05:16.559Z,17.40
2022-08-11T04:08:53.891Z,17.45
2022-08-11T04:11:49.680Z,17.56
2022-08-11T04:15:09.423Z,17.59
2022-08-11T04:17:59.079Z,17.62
2022-08-11T04:20:47.877Z,17.56
2022-08-11T04:24:35.989Z,17.56
2022-08-11T04:27:25.469Z,17.62
2022-08-11T04:30:41.307Z,17.69
2022-08-11T04:34:09.304Z,17.76
2022-08-11T04:37:28.961Z,17.80
2022-08-11T04:40:18.661Z,17.87
2022-08-11T04:43:21.840Z,17.86
2022-08-11T04:46:47.492Z,17.84
2022-08-11T04:50:00.172Z,17.90
2022-08-11T04:53:22.345Z,17.83
2022-08-11T04:56:36.779Z,17.82
2022-08-11T05:00:19.543Z,17.82
2022-08-11T05:03:34.487Z,17.95
2022-08-11T05:06:37.380Z,18.03
2022-08-11T05:09:53.125Z,18.12
2022-08-11T05:12:49.044Z,18.18
2022-08-11T05:16:04.574Z,18.25
2022-08-11T05:18:52.444Z,18.31
2022-08-11T05:21:45.457Z,18.24
2022-08-11T05:24:43.599Z,18.23
2022-08-11T05:27:33.999Z,18.35
2022-08-11T05:30:24.491Z,18.48
2022-08-11T05:33:31.070Z,18.53
2022-08-11T05:36:19.130Z,18.43
2022-08-11T05:39:21.176Z,18.51
2022-08-11T05:42:29.605Z,18.60
2022-08-11T05:45:57.280Z,18.70
2022-08-11T05:48:41.391Z,18.87
2022-08-11T05:51:30.314Z,18.95
2022-08-11T05:54:29.110Z,19.03
2022-08-11T05:57:02.207Z,19.10
2022-08-11T05:59:32.694Z,19.10
2022-08-11T06:02:07.473Z,19.15
2022-08-11T06:04:35.367Z,19.24
2022-08-11T06:07:09.347Z,19.26
2022-08-11T06:09:40.209Z,19.37
2022-08-11T06:12:33.013Z,19.38
2022-08-11T06:15:11.885Z,19.51
2022-08-11T06:17:47.186Z,19.64
2022-08-11T06:20:18.593Z,19.65
2022-08-11T06:22:56.175Z,19.80
2022-08-11T06:25:33.113Z,20.05
2022-08-11T06:28:02.689Z,20.24
2022-08-11T06:30:44.180Z,20.34
2022-08-11T06:33:21.726Z,20.54
2022-08-11T06:36:03.174Z,20.56
2022-08-11T06:39:03.721Z,20.71
2022-08-11T06:41:45.274Z,20.83
2022-08-11T06:44:13.267Z,20.95
2022-08-11T06:46:51.505Z,20.93
2022-08-11T06:49:41.885Z,21.00
2022-08-11T06:52:35.652Z,21.20
2022-08-11T06:55:55.665Z,21.72
2022-08-11T06:58:44.964Z,22.28
2022-08-11T07:01:19.287Z,22.35
2022-08-11T07:04:04.879Z,22.41
2022-08-11T07:08:32.989Z,22.43
2022-08-11T07:11:51.439Z,22.32
2022-08-11T07:14:45.220Z,22.36
2022-08-11T07:17:21.054Z,22.42
2022-08-11T07:20:17.012Z,22.42
2022-08-11T07:23:15.948Z,22.60
2022-08-11T07:26:05.923Z,22.65
2022-08-11T07:28:55.994Z,22.76
2022-08-11T07:31:35.993Z,22.98
2022-08-11T07:34:22.964Z,23.21
2022-08-11T07:36:55.756Z,23.33
2022-08-11T07:39:32.161Z,23.42
2022-08-11T07:42:06.933Z,23.64
2022-08-11T07:44:59.248Z,23.74
2022-08-11T07:47:47.141Z,23.79
2022-08-11T07:50:33.878Z,23.87
2022-08-11T07:53:03.349Z,23.77
2022-08-11T07:55:51.524Z,24.06
2022-08-11T07:58:45.475Z,24.19
2022-08-11T08:01:43.391Z,24.48
2022-08-11T08:04:35.139Z,24.73
2022-08-11T08:07:24.090Z,25.02
2022-08-11T08:10:15.952Z,25.19
2022-08-11T08:13:03.067Z,25.27
2022-08-11T08:15:50.000Z,25.28
2022-08-11T08:18:25.493Z,25.62
2022-08-11T08:21:12.072Z,25.78
2022-08-11T08:23:43.528Z,26.47
2022-08-11T08:26:34.865Z,26.75
2022-08-11T08:29:25.024Z,26.58
2022-08-11T08:31:54.237Z,26.93
2022-08-11T08:34:22.984Z,27.13
2022-08-11T08:36:52.444Z,27.31
2022-08-11T08:39:22.941Z,27.61
2022-08-11T08:41:56.728Z,27.70
2022-08-11T08:44:42.233Z,28.18
2022-08-11T08:47:41.664Z,28.49
2022-08-11T08:50:16.470Z,28.64
2022-08-11T08:52:55.988Z,28.62
2022-08-11T08:55:24.069Z,28.80
2022-08-11T08:57:56.035Z,28.75
2022-08-11T09:00:24.701Z,29.16
2022-08-11T09:02:52.734Z,29.14
2022-08-11T09:05:21.463Z,29.17
2022-08-11T09:07:54.594Z,29.03
2022-08-11T09:10:23.333Z,28.88
2022-08-11T09:12:51.674Z,29.04
2022-08-11T09:15:20.734Z,29.27
2022-08-11T09:18:03.710Z,29.97
2022-08-11T09:20:35.352Z,29.82
2022-08-11T09:26:35.640Z,39.02
2022-08-11T09:29:04.745Z,39.76
2022-08-11T09:31:39.680Z,35.69
2022-08-11T09:34:10.520Z,33.35
2022-08-11T09:36:59.942Z,31.97
2022-08-11T09:39:49.017Z,31.12
2022-08-11T09:42:23.500Z,30.39
2022-08-11T09:44:53.434Z,36.51
2022-08-11T09:47:29.778Z,38.34
2022-08-11T09:50:01.606Z,36.58
2022-08-11T09:52:52.141Z,34.51
2022-08-11T09:55:25.908Z,32.67
2022-08-11T09:58:11.989Z,31.49
2022-08-11T10:01:02.650Z,29.86
2022-08-11T10:03:40.272Z,29.59
2022-08-11T10:06:33.337Z,29.65
2022-08-11T10:09:06.346Z,29.37
2022-08-11T10:11:37.482Z,29.16
2022-08-11T10:14:33.203Z,29.07
2022-08-11T10:17:09.294Z,32.38
2022-08-11T10:19:38.477Z,43.54
2022-08-11T10:22:27.615Z,48.12
2022-08-11T10:25:20.573Z,53.66
2022-08-11T10:28:28.517Z,46.02
2022-08-11T10:31:06.834Z,41.02
2022-08-11T10:34:00.460Z,37.94
2022-08-11T10:36:51.498Z,40.74
2022-08-11T10:39:22.122Z,39.24
2022-08-11T10:42:12.373Z,49.56
2022-08-11T10:44:52.089Z,54.17
2022-08-11T10:47:36.713Z,47.52
2022-08-11T10:50:32.134Z,42.25
2022-08-11T10:53:19.892Z,38.99
2022-08-11T10:56:07.078Z,36.87
2022-08-11T10:58:49.929Z,44.97
2022-08-11T11:01:24.451Z,47.40
2022-08-11T11:04:10.877Z,42.36
2022-08-11T11:07:16.945Z,40.82
2022-08-11T11:10:06.111Z,39.95
2022-08-11T11:13:03.125Z,38.58
2022-08-11T11:15:54.353Z,38.76
2022-08-11T11:18:36.048Z,38.10
2022-08-11T11:21:15.612Z,37.55
2022-08-11T11:24:34.022Z,36.46
2022-08-11T11:27:20.588Z,36.09
2022-08-11T11:30:11.812Z,35.70
2022-08-11T11:33:04.943Z,35.16
2022-08-11T11:35:47.252Z,34.85
2022-08-11T11:38:14.812Z,34.54
2022-08-11T11:40:42.949Z,34.06
2022-08-11T11:43:11.665Z,33.79
2022-08-11T11:45:41.956Z,33.41
2022-08-11T11:48:12.103Z,33.08
2022-08-11T11:50:40.086Z,33.17
2022-08-11T11:53:12.663Z,33.27
2022-08-11T11:55:41.909Z,33.53
2022-08-11T11:58:28.419Z,33.99
2022-08-11T12:01:15.732Z,33.79
2022-08-11T12:03:49.451Z,33.25
2022-08-11T12:06:22.236Z,32.83
2022-08-11T12:08:55.025Z,32.20
2022-08-11T12:11:45.029Z,31.74
2022-08-11T12:14:20.328Z,31.17
2022-08-11T12:16:49.411Z,30.78
2022-08-11T12:19:22.972Z,30.76
2022-08-11T12:22:11.242Z,30.89
2022-08-11T12:24:59.251Z,31.44
2022-08-11T12:27:30.262Z,31.99
2022-08-11T12:30:06.037Z,32.33
2022-08-11T12:32:37.647Z,32.61
2022-08-11T12:35:07.368Z,32.27
2022-08-11T12:37:43.972Z,32.30
2022-08-11T12:41:03.591Z,32.24
2022-08-11T12:43:56.404Z,31.90
2022-08-11T12:46:34.581Z,32.19
2022-08-11T12:49:32.915Z,32.29
2022-08-11T12:52:13.866Z,32.25
2022-08-11T12:54:52.366Z,32.51
2022-08-11T12:57:52.356Z,32.28
2022-08-11T13:00:40.134Z,31.95
2022-08-11T13:03:30.374Z,31.83
2022-08-11T13:06:04.878Z,31.72
2022-08-11T13:08:39.720Z,31.23
2022-08-11T13:11:56.065Z,30.75
2022-08-11T13:14:17.385Z,30.83
2022-08-11T13:17:05.400Z,30.56
2022-08-11T13:19:34.658Z,30.75
2022-08-11T13:22:05.416Z,30.52
2022-08-11T13:24:34.391Z,30.32
2022-08-11T13:27:03.141Z,30.20
2022-08-11T13:29:30.987Z,30.33
2022-08-11T13:32:00.280Z,30.32
2022-08-11T13:34:33.702Z,30.57
2022-08-11T13:37:05.316Z,30.64
2022-08-11T13:39:36.124Z,30.57
2022-08-11T13:42:05.807Z,30.58
2022-08-11T13:44:38.603Z,30.36
2022-08-11T13:47:12.105Z,29.94
2022-08-11T13:49:42.589Z,29.70
2022-08-11T13:52:17.794Z,29.54
2022-08-11T13:54:49.785Z,29.45
2022-08-11T13:58:08.852Z,29.26
2022-08-11T14:00:23.336Z,29.68
2022-08-11T14:02:58.164Z,29.67
2022-08-11T14:05:34.142Z,28.14
2022-08-11T14:08:37.044Z,28.02
2022-08-11T14:12:22.792Z,27.48
2022-08-11T14:14:25.715Z,26.71
2022-08-11T14:16:57.525Z,26.38
2022-08-11T14:19:27.289Z,25.83
2022-08-11T14:22:09.350Z,24.93
2022-08-11T14:24:42.832Z,24.15
2022-08-11T14:28:30.610Z,23.35
2022-08-11T14:30:02.829Z,22.64
2022-08-11T14:32:30.964Z,22.32
2022-08-11T14:34:59.837Z,22.37
2022-08-11T14:37:29.390Z,22.45
2022-08-11T14:40:22.370Z,22.50
2022-08-11T14:43:08.521Z,22.42
2022-08-11T14:45:58.738Z,22.32
2022-08-11T14:48:27.511Z,22.44
2022-08-11T14:50:56.199Z,22.50
2022-08-11T14:53:24.635Z,22.46
2022-08-11T14:56:12.565Z,22.50
2022-08-11T14:58:42.358Z,22.69
2022-08-11T15:01:30.842Z,22.81
2022-08-11T15:04:34.423Z,22.93
2022-08-11T15:06:48.406Z,23.05
2022-08-11T15:09:16.838Z,23.16
2022-08-11T15:12:03.202Z,23.34
2022-08-11T15:14:49.945Z,23.43
2022-08-11T15:17:30.875Z,23.38
2022-08-11T15:20:36.782Z,23.50
2022-08-11T15:23:24.055Z,23.65
2022-08-11T15:26:19.800Z,23.71
2022-08-11T15:29:11.063Z,23.79
2022-08-11T15:31:49.218Z,23.93
2022-08-11T15:34:40.557Z,24.06
2022-08-11T15:37:27.347Z,24.01
2022-08-11T15:40:43.826Z,23.96
2022-08-11T15:43:46.477Z,24.20
2022-08-11T15:46:44.647Z,24.48
2022-08-11T15:50:11.884Z,24.60
2022-08-11T15:52:32.620Z,24.63
2022-08-11T15:55:08.520Z,24.76
2022-08-11T15:57:57.678Z,24.81
2022-08-11T16:00:44.785Z,24.86
2022-08-11T16:04:06.195Z,24.95
2022-08-11T16:06:22.502Z,25.23
2022-08-11T16:08:56.505Z,25.27
2022-08-11T16:11:25.426Z,25.38
2022-08-11T16:14:13.037Z,25.42
2022-08-11T16:16:41.478Z,25.45
2022-08-11T16:19:11.052Z,25.41
2022-08-11T16:21:43.665Z,25.41
2022-08-11T16:27:02.606Z,25.33
2022-08-11T16:27:13.681Z,25.33
2022-08-11T16:29:50.641Z,24.84
2022-08-11T16:32:23.595Z,24.79
2022-08-11T16:35:34.490Z,24.48
2022-08-11T16:38:24.117Z,24.29
2022-08-11T16:40:57.927Z,24.09
2022-08-11T16:43:49.186Z,24.10
2022-08-11T16:46:40.985Z,24.00
2022-08-11T16:49:17.279Z,23.75
2022-08-11T16:51:45.747Z,23.71
2022-08-11T16:54:14.549Z,23.73
2022-08-11T16:56:51.377Z,23.57
2022-08-11T16:59:32.186Z,23.57
2022-08-11T17:02:12.714Z,23.45
2022-08-11T17:05:00.793Z,23.37
2022-08-11T17:07:48.993Z,23.32
2022-08-11T17:11:08.075Z,23.14
2022-08-11T17:13:48.906Z,23.22
2022-08-11T17:16:24.973Z,23.17
2022-08-11T17:19:05.436Z,23.07
2022-08-11T17:22:06.524Z,22.95
2022-08-11T17:24:43.263Z,22.75
2022-08-11T17:27:19.444Z,22.74
2022-08-11T17:30:01.403Z,22.62
2022-08-11T17:33:00.706Z,22.53
2022-08-11T17:35:44.620Z,22.44
2022-08-11T17:38:21.740Z,22.36
2022-08-11T17:41:22.980Z,22.25
2022-08-11T17:44:13.426Z,22.13
2022-08-11T17:47:05.900Z,22.04
2022-08-11T17:49:39.408Z,21.95
2022-08-11T17:52:30.756Z,21.87
2022-08-11T17:55:51.734Z,21.76
2022-08-11T17:58:31.659Z,21.60
2022-08-11T18:01:08.812Z,21.48
2022-08-11T18:03:40.758Z,21.44
2022-08-11T18:06:13.287Z,21.34
2022-08-11T18:09:04.584Z,21.25
2022-08-11T18:12:10.683Z,21.15
2022-08-11T18:15:02.564Z,21.13
2022-08-11T18:17:48.943Z,21.05
2022-08-11T18:20:36.486Z,21.04
2022-08-11T18:23:40.109Z,20.95
2022-08-11T18:26:38.756Z,20.88
2022-08-11T18:29:27.975Z,20.85
2022-08-11T18:32:21.129Z,20.79
2022-08-11T18:35:15.419Z,20.75
2022-08-11T18:38:08.060Z,20.58
2022-08-11T18:40:56.324Z,20.53
2022-08-11T18:43:46.154Z,20.40
2022-08-11T18:46:36.979Z,20.30
2022-08-11T18:49:37.358Z,20.26
2022-08-11T18:52:42.402Z,20.22
2022-08-11T18:55:36.066Z,20.19
2022-08-11T18:58:29.890Z,20.18
2022-08-11T19:01:19.466Z,20.15
2022-08-11T19:04:10.571Z,20.05
2022-08-11T19:07:00.267Z,20.02
2022-08-11T19:09:48.839Z,20.01
2022-08-11T19:12:37.911Z,19.97
2022-08-11T19:15:25.521Z,19.93
2022-08-11T19:18:13.229Z,19.89
2022-08-11T19:21:03.440Z,19.80
2022-08-11T19:24:03.011Z,19.75
2022-08-11T19:26:53.104Z,19.72
2022-08-11T19:30:07.957Z,19.69
2022-08-11T19:32:50.454Z,19.64
2022-08-11T19:35:38.834Z,19.59
2022-08-11T19:38:27.691Z,19.56
2022-08-11T19:41:16.138Z,19.49
2022-08-11T19:44:06.797Z,19.41
2022-08-11T19:46:56.967Z,19.41
2022-08-11T19:49:44.616Z,19.45
2022-08-11T19:52:31.496Z,19.36
2022-08-11T19:55:19.644Z,19.26
2022-08-11T19:58:07.321Z,19.21
2022-08-11T20:00:54.628Z,19.12
2022-08-11T20:03:40.672Z,19.05
2022-08-11T20:06:29.904Z,18.99
2022-08-11T20:09:19.700Z,18.95
2022-08-11T20:12:11.655Z,18.92
2022-08-11T20:15:02.283Z,18.93
2022-08-11T20:17:55.664Z,18.86
2022-08-11T20:20:46.220Z,18.75
2022-08-11T20:23:36.299Z,18.65
2022-08-11T20:26:32.028Z,18.61
2022-08-11T20:29:20.255Z,18.59
2022-08-11T20:32:09.687Z,18.57
2022-08-11T20:34:58.472Z,18.53
2022-08-11T20:37:50.374Z,18.50
2022-08-11T20:40:42.621Z,18.48
2022-08-11T20:44:07.050Z,18.44
2022-08-11T20:46:43.754Z,18.46
2022-08-11T20:49:40.823Z,18.41
2022-08-11T20:52:35.756Z,18.38
2022-08-11T20:55:26.049Z,18.36
2022-08-11T21:01:41.073Z,18.21
2022-08-11T21:04:27.821Z,18.14
2022-08-11T21:07:27.081Z,18.12
2022-08-11T21:10:23.266Z,18.15
2022-08-11T21:13:25.298Z,18.12
2022-08-11T21:16:25.980Z,18.04
2022-08-11T21:20:00.010Z,17.97
2022-08-11T21:22:59.314Z,17.91
2022-08-11T21:26:08.326Z,17.85
2022-08-11T21:28:58.743Z,17.77
2022-08-11T21:31:48.948Z,17.73
2022-08-11T21:34:39.974Z,17.70
2022-08-11T21:37:29.037Z,17.63
2022-08-11T21:40:21.134Z,17.64
2022-08-11T21:43:10.729Z,17.67
2022-08-11T21:45:58.961Z,17.68
2022-08-11T21:48:48.229Z,17.65
2022-08-11T21:51:34.278Z,17.60
2022-08-11T21:54:21.141Z,17.54
2022-08-11T21:57:08.978Z,17.46
2022-08-11T22:00:25.083Z,17.51
2022-08-11T22:03:12.433Z,17.46
2022-08-11T22:06:01.206Z,17.47
2022-08-11T22:08:47.402Z,17.52
2022-08-11T22:11:34.739Z,17.68
2022-08-11T22:14:22.105Z,17.65
2022-08-11T22:17:09.444Z,17.65
2022-08-11T22:19:57.848Z,17.61
2022-08-11T22:22:51.833Z,17.69
2022-08-11T22:25:53.728Z,17.68
2022-08-11T22:28:43.868Z,17.70
2022-08-11T22:31:32.214Z,17.58
2022-08-11T22:34:18.690Z,17.70
2022-08-11T22:37:07.415Z,17.59
2022-08-11T22:39:59.632Z,17.55
2022-08-11T22:42:49.922Z,17.47
2022-08-11T22:45:36.772Z,17.39
2022-08-11T22:48:29.588Z,17.30
2022-08-11T22:51:18.494Z,17.35
2022-08-11T22:54:06.224Z,17.30
2022-08-11T22:56:54.230Z,17.26
2022-08-11T22:59:42.038Z,17.30
2022-08-11T23:02:28.926Z,17.25
2022-08-11T23:05:17.896Z,17.17
2022-08-11T23:08:04.857Z,17.14
2022-08-11T23:10:53.107Z,17.10
2022-08-11T23:13:40.226Z,17.08
2022-08-11T23:16:27.040Z,17.22
2022-08-11T23:19:14.867Z,17.14
2022-08-11T23:22:21.791Z,17.08
2022-08-11T23:25:07.798Z,17.10
2022-08-11T23:27:57.186Z,17.07
2022-08-11T23:30:44.538Z,17.03
2022-08-11T23:33:38.117Z,17.03
2022-08-11T23:36:35.807Z,17.08
2022-08-11T23:39:30.211Z,17.11
2022-08-11T23:42:16.066Z,17.15
2022-08-11T23:45:01.700Z,17.11
2022-08-11T23:47:51.240Z,17.07
2022-08-11T23:50:38.587Z,16.98
2022-08-11T23:53:25.958Z,17.00
2022-08-11T23:56:12.059Z,16.99
2022-08-11T23:58:59.204Z,16.94
